Time;durP1;ratioP1;P1;durP2;ratioP2;P2;SDS_P1;SDS_P2;PMS_P1;PMS_P2;Temp;Humidity;BMP_temperature;BMP_pressure;BME280_temperature;BME280_humidity;BME280_pressure;Samples;Min_cycle;Max_cycle;Signal;HPM_P1;HPM_P2
2023/05/31 00:00:07;;;;;;;;;;;;;;;;;;5053384;28;20345;-76
2023/05/31 00:02:32;;;;;;;;;;;;;;;;;;5067328;28;19916;-76
2023/05/31 00:04:58;;;;;;;;;;;;;;;;;;5073364;28;19938;-76
2023/05/31 00:07:23;;;;;;;;;;;;;;;;;;5073484;28;19915;-74
2023/05/31 00:09:48;;;;;;;;;;;;;;;;;;5073059;28;19938;-75
2023/05/31 00:12:13;;;;;;;;;;;;;;;;;;5073251;28;19964;-75
2023/05/31 00:14:39;;;;;;;;;;;;;;;;;;5073033;28;19913;-75
2023/05/31 00:17:04;;;;;;;;;;;;;;;;;;5071774;28;20287;-76
2023/05/31 00:19:29;;;;;;;;;;;;;;;;;;5071315;28;19923;-75
2023/05/31 00:21:55;;;;;;;;;;;;;;;;;;5072725;28;20445;-75
2023/05/31 00:24:20;;;;;;;;;;;;;;;;;;5072930;28;19919;-74
2023/05/31 00:26:46;;;;;;;;;;;;;;;;;;5073162;28;19950;-74
2023/05/31 00:29:12;;;;;;;;;;;;;;;;;;5072888;28;19912;-75
2023/05/31 00:31:38;;;;;;;;;;;;;;;;;;5072780;28;19908;-74
2023/05/31 00:34:03;;;;;;;;;;;;;;;;;;5055228;28;20011;-74
2023/05/31 00:36:28;;;;;;;;;;;;;;;;;;5055030;28;19958;-75
2023/05/31 00:38:54;;;;;;;;;;;;;;;;;;5053931;28;20265;-74
2023/05/31 00:41:19;;;;;;;;;;;;;;;;;;5055136;28;19917;-75
2023/05/31 00:43:45;;;;;;;;;;;;;;;;;;5072894;28;19909;-74
2023/05/31 00:46:10;;;;;;;;;;;;;;;;;;5054926;28;20006;-75
2023/05/31 00:48:37;;;;;;;;;;;;;;;;;;5072653;28;20425;-75
2023/05/31 00:51:03;;;;;;;;;;;;;;;;;;5054835;28;19962;-75
2023/05/31 00:53:28;;;;;;;;;;;;;;;;;;5071143;28;19913;-75
2023/05/31 00:55:53;;;;;;;;;;;;;;;;;;5072814;28;19913;-76
2023/05/31 00:58:18;;;;;;;;;;;;;;;;;;5072651;28;20002;-76
2023/05/31 01:00:47;;;;;;;;;;;;;;;;;;5072204;28;19915;-73
2023/05/31 01:03:20;;;;;;;;;;;;;;;;;;5055012;28;20253;-74
2023/05/31 01:05:45;;;;;;;;;;;;;;;;;;5072855;28;19927;-75
2023/05/31 01:08:11;;;;;;;;;;;;;;;;;;5071312;28;20367;-75
2023/05/31 01:10:36;;;;;;;;;;;;;;;;;;5072451;28;19913;-74
2023/05/31 01:13:02;;;;;;;;;;;;;;;;;;5054612;28;19927;-75
2023/05/31 01:15:27;;;;;;;;;;;;;;;;;;5072459;28;20437;-75
2023/05/31 01:17:55;;;;;;;;;;;;;;;;;;5072468;28;19917;-74
2023/05/31 01:20:20;;;;;;;;;;;;;;;;;;5072418;28;19913;-74
2023/05/31 01:22:50;;;;;;;;;;;;;;;;;;5053084;28;19924;-76
2023/05/31 01:25:15;;;;;;;;;;;;;;;;;;5054402;28;19913;-75
2023/05/31 01:27:40;;;;;;;;;;;;;;;;;;5054434;28;20328;-75
2023/05/31 01:30:06;;;;;;;;;;;;;;;;;;5072390;28;19994;-75
2023/05/31 01:32:31;;;;;;;;;;;;;;;;;;5054285;28;20007;-75
2023/05/31 01:34:56;;;;;;;;;;;;;;;;;;5055995;28;19919;-75
2023/05/31 01:37:21;;;;;;;;;;;;;;;;;;5074516;28;19943;-75
2023/05/31 01:39:47;;;;;;;;;;;;;;;;;;5075759;28;19982;-75
2023/05/31 01:42:13;;;;;;;;;;;;;;;;;;5075555;28;19913;-75
2023/05/31 01:44:38;;;;;;;;;;;;;;;;;;5075655;28;19912;-75
2023/05/31 01:47:05;;;;;;;;;;;;;;;;;;5057441;28;19920;-75
2023/05/31 01:49:31;;;;;;;;;;;;;;;;;;5057705;28;19909;-76
2023/05/31 01:51:56;;;;;;;;;;;;;;;;;;5057416;28;19916;-75
2023/05/31 01:54:21;;;;;;;;;;;;;;;;;;5057657;28;19912;-75
2023/05/31 01:56:47;;;;;;;;;;;;;;;;;;5067883;28;19918;-77
2023/05/31 01:59:12;;;;;;;;;;;;;;;;;;5073219;28;19994;-79
2023/05/31 02:01:37;;;;;;;;;;;;;;;;;;5078769;28;19916;-76
2023/05/31 02:04:03;;;;;;;;;;;;;;;;;;5061191;28;19955;-75
2023/05/31 02:06:28;;;;;;;;;;;;;;;;;;5076153;28;19912;-76
2023/05/31 02:08:53;;;;;;;;;;;;;;;;;;5057919;28;20421;-76
2023/05/31 02:11:18;;;;;;;;;;;;;;;;;;5075326;28;19919;-76
2023/05/31 02:13:44;;;;;;;;;;;;;;;;;;5075745;28;19912;-79
2023/05/31 02:16:09;;;;;;;;;;;;;;;;;;5057079;28;19963;-77
2023/05/31 02:18:35;;;;;;;;;;;;;;;;;;5057345;28;20338;-77
2023/05/31 02:21:00;;;;;;;;;;;;;;;;;;5075012;28;19916;-76
2023/05/31 02:23:26;;;;;;;;;;;;;;;;;;5075060;28;19916;-77
2023/05/31 02:25:51;;;;;;;;;;;;;;;;;;5073736;28;20330;-77
2023/05/31 02:28:16;;;;;;;;;;;;;;;;;;5056990;28;20322;-76
2023/05/31 02:30:42;;;;;;;;;;;;;;;;;;5056849;28;19909;-77
2023/05/31 02:33:07;;;;;;;;;;;;;;;;;;5074646;28;19912;-76
2023/05/31 02:35:32;;;;;;;;;;;;;;;;;;5074699;28;19966;-76
2023/05/31 02:37:58;;;;;;;;;;;;;;;;;;5074680;28;19920;-76
2023/05/31 02:40:23;;;;;;;;;;;;;;;;;;5074886;28;19915;-75
2023/05/31 02:42:48;;;;;;;;;;;;;;;;;;5074669;28;19924;-74
2023/05/31 02:45:14;;;;;;;;;;;;;;;;;;5074182;28;20292;-75
2023/05/31 02:47:39;;;;;;;;;;;;;;;;;;5055638;28;19919;-75
2023/05/31 02:50:05;;;;;;;;;;;;;;;;;;5056391;28;19919;-75
2023/05/31 02:52:30;;;;;;;;;;;;;;;;;;5056443;28;19922;-75
2023/05/31 02:54:56;;;;;;;;;;;;;;;;;;5074513;28;20426;-75
2023/05/31 02:57:24;;;;;;;;;;;;;;;;;;5056520;28;19919;-75
2023/05/31 02:59:50;;;;;;;;;;;;;;;;;;5056444;28;19912;-76
2023/05/31 03:02:18;;;;;;;;;;;;;;;;;;5053098;28;19951;-76
2023/05/31 03:04:44;;;;;;;;;;;;;;;;;;5070589;28;19908;-76
2023/05/31 03:07:10;;;;;;;;;;;;;;;;;;5052593;28;19912;-76
2023/05/31 03:09:36;;;;;;;;;;;;;;;;;;5052188;28;20288;-77
2023/05/31 03:12:01;;;;;;;;;;;;;;;;;;5052069;28;19912;-76
2023/05/31 03:14:27;;;;;;;;;;;;;;;;;;5052415;28;19912;-76
2023/05/31 03:16:53;;;;;;;;;;;;;;;;;;5051975;28;19916;-75
2023/05/31 03:19:18;;;;;;;;;;;;;;;;;;5051959;28;20393;-76
2023/05/31 03:21:47;;;;;;;;;;;;;;;;;;5068578;28;19924;-80
2023/05/31 03:24:12;;;;;;;;;;;;;;;;;;5052094;28;19913;-76
2023/05/31 03:26:37;;;;;;;;;;;;;;;;;;5035336;28;19971;-75
2023/05/31 03:29:03;;;;;;;;;;;;;;;;;;5069992;28;19966;-76
2023/05/31 03:31:29;;;;;;;;;;;;;;;;;;5070082;28;19912;-79
2023/05/31 03:33:55;;;;;;;;;;;;;;;;;;5052009;28;20383;-77
2023/05/31 03:36:21;;;;;;;;;;;;;;;;;;5052122;28;19951;-77
2023/05/31 03:38:46;;;;;;;;;;;;;;;;;;5069829;28;19915;-77
2023/05/31 03:41:12;;;;;;;;;;;;;;;;;;5051705;28;20371;-81
2023/05/31 03:43:37;;;;;;;;;;;;;;;;;;5070068;28;19912;-76
2023/05/31 03:46:02;;;;;;;;;;;;;;;;;;5069733;28;19908;-80
2023/05/31 03:48:27;;;;;;;;;;;;;;;;;;5051816;28;19913;-78
2023/05/31 03:50:53;;;;;;;;;;;;;;;;;;5068285;28;19916;-75
2023/05/31 03:53:18;;;;;;;;;;;;;;;;;;5069463;28;20375;-75
2023/05/31 03:55:43;;;;;;;;;;;;;;;;;;5051854;28;19912;-78
2023/05/31 03:58:08;;;;;;;;;;;;;;;;;;5051123;28;20375;-75
2023/05/31 04:00:37;;;;;;;;;;;;;;;;;;5050074;28;19981;-75
2023/05/31 04:03:02;;;;;;;;;;;;;;;;;;5051236;28;19916;-74
2023/05/31 04:05:28;;;;;;;;;;;;;;;;;;5050373;28;19912;-75
2023/05/31 04:07:53;;;;;;;;;;;;;;;;;;5051729;28;19913;-75
2023/05/31 04:10:18;;;;;;;;;;;;;;;;;;5051233;28;20038;-75
2023/05/31 04:12:44;;;;;;;;;;;;;;;;;;5069295;28;19986;-77
2023/05/31 04:15:09;;;;;;;;;;;;;;;;;;5051182;28;19913;-75
2023/05/31 04:17:34;;;;;;;;;;;;;;;;;;5069788;28;19908;-78
2023/05/31 04:20:00;;;;;;;;;;;;;;;;;;5069535;28;19938;-81
2023/05/31 04:22:25;;;;;;;;;;;;;;;;;;5034629;28;20011;-75
2023/05/31 04:24:51;;;;;;;;;;;;;;;;;;5049507;28;20339;-81
2023/05/31 04:27:25;;;;;;;;;;;;;;;;;;5049067;28;19967;-76
2023/05/31 04:29:51;;;;;;;;;;;;;;;;;;5049115;28;19919;-78
2023/05/31 04:32:21;;;;;;;;;;;;;;;;;;5048738;28;19916;-76
2023/05/31 04:34:47;;;;;;;;;;;;;;;;;;5060670;28;19920;-76
2023/05/31 04:37:13;;;;;;;;;;;;;;;;;;5037800;28;19960;-74
2023/05/31 04:39:38;;;;;;;;;;;;;;;;;;5048927;28;20418;-74
2023/05/31 04:42:05;;;;;;;;;;;;;;;;;;5048536;28;19916;-74
2023/05/31 04:44:31;;;;;;;;;;;;;;;;;;5048829;28;20307;-74
2023/05/31 04:46:57;;;;;;;;;;;;;;;;;;5046336;28;19923;-76
2023/05/31 04:49:24;;;;;;;;;;;;;;;;;;5066273;28;19912;-76
2023/05/31 04:51:49;;;;;;;;;;;;;;;;;;5047243;28;19912;-74
2023/05/31 04:54:15;;;;;;;;;;;;;;;;;;5048662;28;20375;-75
2023/05/31 04:56:40;;;;;;;;;;;;;;;;;;5067506;28;19939;-75
2023/05/31 04:59:07;;;;;;;;;;;;;;;;;;5066422;28;19920;-74
2023/05/31 05:01:33;;;;;;;;;;;;;;;;;;5050113;28;19916;-75
2023/05/31 05:04:02;;;;;;;;;;;;;;;;;;5064374;28;20287;-75
2023/05/31 05:06:28;;;;;;;;;;;;;;;;;;5068749;28;19913;-75
2023/05/31 05:08:54;;;;;;;;;;;;;;;;;;5067493;28;19945;-76
2023/05/31 05:11:19;;;;;;;;;;;;;;;;;;5052879;28;19916;-74
2023/05/31 05:13:45;;;;;;;;;;;;;;;;;;5066560;28;19919;-74
2023/05/31 05:16:11;;;;;;;;;;;;;;;;;;5053404;28;19923;-75
2023/05/31 05:18:36;;;;;;;;;;;;;;;;;;5071615;28;19921;-75
2023/05/31 05:21:03;;;;;;;;;;;;;;;;;;5070442;28;19917;-76
2023/05/31 05:23:32;;;;;;;;;;;;;;;;;;5052795;28;20014;-74
2023/05/31 05:25:59;;;;;;;;;;;;;;;;;;5037525;28;19912;-75
2023/05/31 05:28:25;;;;;;;;;;;;;;;;;;5050162;28;19919;-76
2023/05/31 05:30:50;;;;;;;;;;;;;;;;;;5069632;28;19908;-75
2023/05/31 05:33:16;;;;;;;;;;;;;;;;;;5054078;28;19912;-74
2023/05/31 05:35:41;;;;;;;;;;;;;;;;;;5053914;28;19912;-75
2023/05/31 05:38:07;;;;;;;;;;;;;;;;;;5070564;28;19912;-74
2023/05/31 05:40:32;;;;;;;;;;;;;;;;;;5048762;28;20314;-77
2023/05/31 05:42:58;;;;;;;;;;;;;;;;;;5050300;28;19916;-80
2023/05/31 05:45:23;;;;;;;;;;;;;;;;;;5052593;28;19944;-74
2023/05/31 05:47:49;;;;;;;;;;;;;;;;;;5031742;28;19923;-74
2023/05/31 05:50:16;;;;;;;;;;;;;;;;;;5047096;28;19920;-73
2023/05/31 05:52:41;;;;;;;;;;;;;;;;;;5056553;28;19916;-74
2023/05/31 05:55:06;;;;;;;;;;;;;;;;;;5042727;28;20018;-75
2023/05/31 05:57:32;;;;;;;;;;;;;;;;;;5054403;28;19913;-78
2023/05/31 06:00:11;;;;;;;;;;;;;;;;;;5050311;28;20368;-75
2023/05/31 06:02:38;;;;;;;;;;;;;;;;;;5051140;28;19916;-74
2023/05/31 06:05:04;;;;;;;;;;;;;;;;;;5050598;28;20031;-76
2023/05/31 06:07:29;;;;;;;;;;;;;;;;;;5052329;28;20007;-74
2023/05/31 06:09:55;;;;;;;;;;;;;;;;;;5070066;28;20444;-75
2023/05/31 06:12:20;;;;;;;;;;;;;;;;;;5061741;28;19916;-75
2023/05/31 06:14:46;;;;;;;;;;;;;;;;;;5062956;28;19920;-76
2023/05/31 06:17:11;;;;;;;;;;;;;;;;;;5054185;28;20371;-77
2023/05/31 06:19:36;;;;;;;;;;;;;;;;;;5059578;28;20327;-77
2023/05/31 06:22:02;;;;;;;;;;;;;;;;;;5041719;28;20406;-75
2023/05/31 06:24:27;;;;;;;;;;;;;;;;;;5064872;28;19916;-73
2023/05/31 06:26:53;;;;;;;;;;;;;;;;;;5055278;28;20427;-77
2023/05/31 06:29:23;;;;;;;;;;;;;;;;;;5068928;28;19912;-74
2023/05/31 06:31:56;;;;;;;;;;;;;;;;;;5071088;28;19919;-78
2023/05/31 06:34:21;;;;;;;;;;;;;;;;;;5045416;28;19939;-74
2023/05/31 06:36:47;;;;;;;;;;;;;;;;;;5035034;28;19913;-74
2023/05/31 06:39:12;;;;;;;;;;;;;;;;;;5054898;28;19916;-75
2023/05/31 06:41:37;;;;;;;;;;;;;;;;;;5072426;28;19916;-75
2023/05/31 06:44:22;;;;;;;;;;;;;;;;;;5071512;28;20261;-74
2023/05/31 06:46:56;;;;;;;;;;;;;;;;;;5071378;28;19920;-74
2023/05/31 06:49:25;;;;;;;;;;;;;;;;;;5069793;28;19920;-76
2023/05/31 06:51:50;;;;;;;;;;;;;;;;;;5070663;28;20446;-74
2023/05/31 06:54:27;;;;;;;;;;;;;;;;;;5059149;28;19935;-73
2023/05/31 06:56:52;;;;;;;;;;;;;;;;;;5052082;28;20379;-74
2023/05/31 06:59:18;;;;;;;;;;;;;;;;;;5065500;28;19924;-74
2023/05/31 07:01:43;;;;;;;;;;;;;;;;;;5070101;28;20010;-74
2023/05/31 07:04:08;;;;;;;;;;;;;;;;;;5052270;28;20026;-74
2023/05/31 07:06:35;;;;;;;;;;;;;;;;;;5052239;28;19923;-74
2023/05/31 07:09:00;;;;;;;;;;;;;;;;;;5069150;28;19912;-76
2023/05/31 07:11:32;;;;;;;;;;;;;;;;;;5066325;28;19916;-77
2023/05/31 07:14:02;;;;;;;;;;;;;;;;;;5049426;28;19912;-75
2023/05/31 07:16:27;;;;;;;;;;;;;;;;;;5059651;28;20307;-75
2023/05/31 07:18:52;;;;;;;;;;;;;;;;;;5055385;28;19935;-74
2023/05/31 07:21:18;;;;;;;;;;;;;;;;;;5048473;28;20033;-76
2023/05/31 07:23:43;;;;;;;;;;;;;;;;;;5053621;28;19912;-73
2023/05/31 07:26:08;;;;;;;;;;;;;;;;;;5069629;28;20389;-73
2023/05/31 07:28:33;;;;;;;;;;;;;;;;;;5069848;28;20274;-73
2023/05/31 07:30:59;;;;;;;;;;;;;;;;;;5069885;28;19912;-73
2023/05/31 07:33:24;;;;;;;;;;;;;;;;;;5064996;28;19959;-74
2023/05/31 07:35:50;;;;;;;;;;;;;;;;;;5060276;28;19983;-73
2023/05/31 07:38:15;;;;;;;;;;;;;;;;;;5068847;28;19919;-73
2023/05/31 07:40:43;;;;;;;;;;;;;;;;;;5071099;28;19980;-74
2023/05/31 07:43:13;;;;;;;;;;;;;;;;;;5070120;28;20375;-71
2023/05/31 07:45:43;;;;;;;;;;;;;;;;;;5070607;28;19920;-74
2023/05/31 07:48:09;;;;;;;;;;;;;;;;;;5062597;28;19912;-70
2023/05/31 07:50:38;;;;;;;;;;;;;;;;;;5016825;28;20924;-73
2023/05/31 07:53:07;;;;;;;;;;;;;;;;;;5060454;28;20454;-74
2023/05/31 07:55:32;;;;;;;;;;;;;;;;;;5068941;28;19916;-74
2023/05/31 07:57:58;;;;;;;;;;;;;;;;;;5069178;28;19909;-74
2023/05/31 08:00:23;;;;;;;;;;;;;;;;;;5069371;28;20003;-75
2023/05/31 08:02:48;;;;;;;;;;;;;;;;;;5067737;28;19916;-76
2023/05/31 08:05:14;;;;;;;;;;;;;;;;;;5069265;28;19923;-77
2023/05/31 08:07:39;;;;;;;;;;;;;;;;;;5035465;28;19917;-73
2023/05/31 08:10:05;;;;;;;;;;;;;;;;;;5066672;28;19917;-74
2023/05/31 08:12:30;;;;;;;;;;;;;;;;;;5064678;28;19916;-81
2023/05/31 08:14:55;;;;;;;;;;;;;;;;;;5067012;28;19962;-81
2023/05/31 08:17:20;;;;;;;;;;;;;;;;;;5061134;28;20453;-81
2023/05/31 08:19:46;;;;;;;;;;;;;;;;;;5043829;28;19920;-80
2023/05/31 08:22:11;;;;;;;;;;;;;;;;;;5058538;28;20277;-80
2023/05/31 08:24:36;;;;;;;;;;;;;;;;;;5061226;28;20212;-80
2023/05/31 08:27:01;;;;;;;;;;;;;;;;;;5068812;28;20283;-81
2023/05/31 08:29:27;;;;;;;;;;;;;;;;;;5068530;28;20371;-81
2023/05/31 08:31:52;;;;;;;;;;;;;;;;;;5048641;28;19916;-81
2023/05/31 08:34:19;;;;;;;;;;;;;;;;;;5065914;28;19963;-79
2023/05/31 08:36:44;;;;;;;;;;;;;;;;;;5068090;28;20261;-78
2023/05/31 08:39:09;;;;;;;;;;;;;;;;;;5067990;28;19939;-80
2023/05/31 08:41:35;;;;;;;;;;;;;;;;;;5067205;28;19925;-80
2023/05/31 08:44:00;;;;;;;;;;;;;;;;;;5067979;28;20427;-77
2023/05/31 08:46:25;;;;;;;;;;;;;;;;;;5068465;28;19967;-79
2023/05/31 08:48:50;;;;;;;;;;;;;;;;;;5068408;28;19909;-80
2023/05/31 08:51:16;;;;;;;;;;;;;;;;;;5065908;28;19916;-81
2023/05/31 08:53:41;;;;;;;;;;;;;;;;;;5066635;28;19912;-80
2023/05/31 08:56:06;;;;;;;;;;;;;;;;;;5067452;28;19920;-80
2023/05/31 08:58:32;;;;;;;;;;;;;;;;;;5067236;28;19924;-79
2023/05/31 09:00:57;;;;;;;;;;;;;;;;;;5067815;28;20546;-81
2023/05/31 09:03:22;;;;;;;;;;;;;;;;;;5067061;28;20393;-82
2023/05/31 09:05:47;;;;;;;;;;;;;;;;;;5067440;28;19913;-84
2023/05/31 09:08:13;;;;;;;;;;;;;;;;;;5066024;28;20364;-81
2023/05/31 09:10:38;;;;;;;;;;;;;;;;;;5065846;28;19938;-80
2023/05/31 09:13:04;;;;;;;;;;;;;;;;;;5066208;28;19915;-77
2023/05/31 09:15:29;;;;;;;;;;;;;;;;;;5066228;28;19958;-81
2023/05/31 09:17:54;;;;;;;;;;;;;;;;;;5065961;28;20370;-80
2023/05/31 09:20:20;;;;;;;;;;;;;;;;;;5047926;28;20350;-78
2023/05/31 09:22:45;;;;;;;;;;;;;;;;;;5066535;28;19924;-80
2023/05/31 09:25:10;;;;;;;;;;;;;;;;;;5050353;28;20002;-81
2023/05/31 09:27:36;;;;;;;;;;;;;;;;;;5068072;28;20322;-81
2023/05/31 09:30:01;;;;;;;;;;;;;;;;;;5067438;28;19920;-77
2023/05/31 09:32:27;;;;;;;;;;;;;;;;;;5067500;28;20034;-79
2023/05/31 09:34:52;;;;;;;;;;;;;;;;;;5068461;28;20721;-78
2023/05/31 09:37:17;;;;;;;;;;;;;;;;;;5048818;28;20390;-76
2023/05/31 09:39:43;;;;;;;;;;;;;;;;;;5067729;28;19913;-78
2023/05/31 09:42:08;;;;;;;;;;;;;;;;;;5065535;28;20367;-79
2023/05/31 09:44:33;;;;;;;;;;;;;;;;;;5067717;28;19963;-81
2023/05/31 09:46:58;;;;;;;;;;;;;;;;;;5067571;28;19916;-78
2023/05/31 09:49:24;;;;;;;;;;;;;;;;;;5067759;28;19912;-78
2023/05/31 09:51:49;;;;;;;;;;;;;;;;;;5067997;28;19954;-80
2023/05/31 09:54:17;;;;;;;;;;;;;;;;;;5067289;28;20279;-78
2023/05/31 09:56:42;;;;;;;;;;;;;;;;;;5068858;28;19909;-78
2023/05/31 09:59:07;;;;;;;;;;;;;;;;;;5071271;28;20268;-80
2023/05/31 10:01:32;;;;;;;;;;;;;;;;;;5070913;28;19924;-80
2023/05/31 10:03:59;;;;;;;;;;;;;;;;;;5071117;28;19912;-78
2023/05/31 10:06:24;;;;;;;;;;;;;;;;;;5070658;28;19912;-74
2023/05/31 10:08:50;;;;;;;;;;;;;;;;;;5070326;28;19916;-77
2023/05/31 10:11:15;;;;;;;;;;;;;;;;;;5071001;28;20159;-80
2023/05/31 10:13:40;;;;;;;;;;;;;;;;;;5070488;28;19908;-79
2023/05/31 10:16:06;;;;;;;;;;;;;;;;;;5070464;28;19962;-77
2023/05/31 10:18:31;;;;;;;;;;;;;;;;;;5064064;28;20805;-79
2023/05/31 10:20:56;;;;;;;;;;;;;;;;;;5070633;28;19912;-85
2023/05/31 10:23:22;;;;;;;;;;;;;;;;;;5072002;28;19912;-81
2023/05/31 10:25:47;;;;;;;;;;;;;;;;;;5074408;28;19912;-79
2023/05/31 10:28:12;;;;;;;;;;;;;;;;;;5069929;28;20406;-82
2023/05/31 10:30:37;;;;;;;;;;;;;;;;;;5071071;28;20311;-82
2023/05/31 10:33:03;;;;;;;;;;;;;;;;;;5060273;28;20368;-80
2023/05/31 10:35:28;;;;;;;;;;;;;;;;;;5059303;28;20175;-81
2023/05/31 10:37:53;;;;;;;;;;;;;;;;;;5063688;28;20337;-80
2023/05/31 10:40:19;;;;;;;;;;;;;;;;;;5050977;28;19916;-79
2023/05/31 10:42:44;;;;;;;;;;;;;;;;;;5069531;28;19963;-81
2023/05/31 10:45:10;;;;;;;;;;;;;;;;;;5070454;28;19916;-82
2023/05/31 10:47:38;;;;;;;;;;;;;;;;;;5070578;28;19912;-80
2023/05/31 10:50:05;;;;;;;;;;;;;;;;;;5052702;28;19937;-82
2023/05/31 10:52:31;;;;;;;;;;;;;;;;;;5070994;28;19916;-80
2023/05/31 10:54:57;;;;;;;;;;;;;;;;;;5066524;28;20069;-78
2023/05/31 10:57:22;;;;;;;;;;;;;;;;;;5070453;28;19916;-81
2023/05/31 10:59:48;;;;;;;;;;;;;;;;;;5069992;28;19954;-81
2023/05/31 11:02:13;;;;;;;;;;;;;;;;;;5068437;28;20015;-81
2023/05/31 11:04:38;;;;;;;;;;;;;;;;;;5075109;28;19919;-82
2023/05/31 11:07:04;;;;;;;;;;;;;;;;;;5077224;28;20126;-82
2023/05/31 11:09:29;;;;;;;;;;;;;;;;;;5069290;28;19912;-83
2023/05/31 11:11:54;;;;;;;;;;;;;;;;;;5069607;28;19949;-82
2023/05/31 11:14:25;;;;;;;;;;;;;;;;;;5069784;28;19916;-81
2023/05/31 11:16:52;;;;;;;;;;;;;;;;;;5070082;28;19917;-82
2023/05/31 11:19:18;;;;;;;;;;;;;;;;;;5068972;28;19920;-82
2023/05/31 11:21:43;;;;;;;;;;;;;;;;;;5053434;28;19928;-80
2023/05/31 11:24:08;;;;;;;;;;;;;;;;;;5087056;28;20534;-79
2023/05/31 11:26:33;;;;;;;;;;;;;;;;;;5091283;28;19912;-79
2023/05/31 11:28:59;;;;;;;;;;;;;;;;;;5066200;28;19923;-82
2023/05/31 11:31:25;;;;;;;;;;;;;;;;;;5078281;28;20415;-80
2023/05/31 11:33:50;;;;;;;;;;;;;;;;;;5077934;28;20383;-80
2023/05/31 11:36:16;;;;;;;;;;;;;;;;;;5068207;28;19912;-83
2023/05/31 11:38:42;;;;;;;;;;;;;;;;;;5069789;28;20352;-79
2023/05/31 11:41:07;;;;;;;;;;;;;;;;;;5069022;28;19965;-82
2023/05/31 11:43:32;;;;;;;;;;;;;;;;;;5070040;28;20330;-78
2023/05/31 11:45:57;;;;;;;;;;;;;;;;;;5069160;28;19966;-80
2023/05/31 11:48:23;;;;;;;;;;;;;;;;;;5068656;28;19912;-82
2023/05/31 11:50:48;;;;;;;;;;;;;;;;;;5068442;28;20371;-79
2023/05/31 11:53:13;;;;;;;;;;;;;;;;;;5033396;28;19946;-80
2023/05/31 11:55:38;;;;;;;;;;;;;;;;;;5062681;28;20288;-81
2023/05/31 11:58:04;;;;;;;;;;;;;;;;;;5049067;28;19917;-82
2023/05/31 12:00:31;;;;;;;;;;;;;;;;;;5066172;28;20395;-81
2023/05/31 12:02:56;;;;;;;;;;;;;;;;;;5069153;28;19920;-80
2023/05/31 12:05:22;;;;;;;;;;;;;;;;;;5068763;28;19923;-81
2023/05/31 12:07:47;;;;;;;;;;;;;;;;;;5069182;28;19912;-80
2023/05/31 12:10:12;;;;;;;;;;;;;;;;;;5067235;28;19923;-80
2023/05/31 12:12:37;;;;;;;;;;;;;;;;;;5050096;28;19912;-79
2023/05/31 12:15:03;;;;;;;;;;;;;;;;;;5066496;28;19912;-80
2023/05/31 12:17:28;;;;;;;;;;;;;;;;;;5066984;28;19966;-80
2023/05/31 12:19:54;;;;;;;;;;;;;;;;;;5066706;28;19967;-79
2023/05/31 12:22:19;;;;;;;;;;;;;;;;;;5068699;28;20291;-76
2023/05/31 12:24:45;;;;;;;;;;;;;;;;;;5073763;28;19923;-77
2023/05/31 12:27:10;;;;;;;;;;;;;;;;;;5075933;28;20041;-81
2023/05/31 12:29:36;;;;;;;;;;;;;;;;;;5050062;28;19912;-78
2023/05/31 12:35:04;;;;;;;;;;;;;;;;;;5065403;28;19919;-79
2023/05/31 12:37:29;;;;;;;;;;;;;;;;;;5069231;28;20058;-82
2023/05/31 12:39:54;;;;;;;;;;;;;;;;;;5070828;28;19916;-80
2023/05/31 12:42:19;;;;;;;;;;;;;;;;;;5063739;28;19921;-82
2023/05/31 12:44:45;;;;;;;;;;;;;;;;;;5067519;28;20394;-80
2023/05/31 12:47:10;;;;;;;;;;;;;;;;;;5069633;28;19920;-83
2023/05/31 12:49:36;;;;;;;;;;;;;;;;;;5049009;28;20371;-81
2023/05/31 12:52:02;;;;;;;;;;;;;;;;;;5050448;28;19923;-80
2023/05/31 12:54:28;;;;;;;;;;;;;;;;;;5067244;28;19912;-78
2023/05/31 12:56:53;;;;;;;;;;;;;;;;;;5068306;28;19912;-77
2023/05/31 12:59:18;;;;;;;;;;;;;;;;;;5067986;28;19912;-79
2023/05/31 13:01:43;;;;;;;;;;;;;;;;;;5068407;28;19917;-83
2023/05/31 13:04:09;;;;;;;;;;;;;;;;;;5070402;28;20033;-80
2023/05/31 13:06:35;;;;;;;;;;;;;;;;;;5050048;28;19999;-79
2023/05/31 13:09:04;;;;;;;;;;;;;;;;;;5067362;28;19912;-84
2023/05/31 13:11:29;;;;;;;;;;;;;;;;;;5067016;28;19919;-82
2023/05/31 13:13:55;;;;;;;;;;;;;;;;;;5067878;28;19912;-81
2023/05/31 13:16:20;;;;;;;;;;;;;;;;;;5067833;28;19912;-83
2023/05/31 13:18:46;;;;;;;;;;;;;;;;;;5068082;28;19920;-82
2023/05/31 13:21:11;;;;;;;;;;;;;;;;;;5065523;28;19915;-80
2023/05/31 13:23:36;;;;;;;;;;;;;;;;;;5068918;28;20307;-80
2023/05/31 13:26:02;;;;;;;;;;;;;;;;;;5067487;28;19916;-82
2023/05/31 13:28:27;;;;;;;;;;;;;;;;;;5068510;28;19913;-82
2023/05/31 13:30:53;;;;;;;;;;;;;;;;;;5070694;28;20433;-78
2023/05/31 13:33:18;;;;;;;;;;;;;;;;;;5071862;28;19918;-76
2023/05/31 13:35:43;;;;;;;;;;;;;;;;;;5072136;28;20719;-81
2023/05/31 13:38:08;;;;;;;;;;;;;;;;;;5072092;28;19920;-77
2023/05/31 13:40:35;;;;;;;;;;;;;;;;;;5071369;28;19920;-77
2023/05/31 13:43:00;;;;;;;;;;;;;;;;;;5071541;28;19916;-80
2023/05/31 13:45:26;;;;;;;;;;;;;;;;;;5066692;28;19939;-78
2023/05/31 13:47:51;;;;;;;;;;;;;;;;;;5052103;28;19912;-77
2023/05/31 13:50:16;;;;;;;;;;;;;;;;;;5059301;28;20003;-79
2023/05/31 13:52:41;;;;;;;;;;;;;;;;;;5054789;28;20253;-78
2023/05/31 13:55:07;;;;;;;;;;;;;;;;;;5065749;28;20284;-79
2023/05/31 13:57:32;;;;;;;;;;;;;;;;;;5052126;28;20275;-79
2023/05/31 13:59:57;;;;;;;;;;;;;;;;;;5051540;28;19913;-80
2023/05/31 14:02:23;;;;;;;;;;;;;;;;;;5051491;28;20458;-82
2023/05/31 14:04:48;;;;;;;;;;;;;;;;;;5061071;28;19935;-81
2023/05/31 14:07:14;;;;;;;;;;;;;;;;;;5076403;28;19969;-80
2023/05/31 14:09:40;;;;;;;;;;;;;;;;;;5080064;28;19912;-80
2023/05/31 14:12:05;;;;;;;;;;;;;;;;;;5070822;28;20003;-84
2023/05/31 14:14:31;;;;;;;;;;;;;;;;;;5077052;28;20341;-83
2023/05/31 14:16:56;;;;;;;;;;;;;;;;;;5081657;28;19916;-78
2023/05/31 14:19:21;;;;;;;;;;;;;;;;;;5072986;28;20019;-81
2023/05/31 14:21:47;;;;;;;;;;;;;;;;;;5065346;28;19917;-78
2023/05/31 14:24:12;;;;;;;;;;;;;;;;;;5050869;28;19927;-78
2023/05/31 14:26:38;;;;;;;;;;;;;;;;;;5041536;28;19917;-79
2023/05/31 14:29:03;;;;;;;;;;;;;;;;;;5037619;28;19916;-82
2023/05/31 14:31:28;;;;;;;;;;;;;;;;;;5076824;28;20578;-70
2023/05/31 14:33:54;;;;;;;;;;;;;;;;;;5075756;28;19920;-69
2023/05/31 14:36:19;;;;;;;;;;;;;;;;;;5063068;28;20274;-69
2023/05/31 14:38:44;;;;;;;;;;;;;;;;;;5070947;28;19912;-70
2023/05/31 14:41:10;;;;;;;;;;;;;;;;;;5071510;28;19964;-69
2023/05/31 14:43:35;;;;;;;;;;;;;;;;;;5070746;28;19946;-69
2023/05/31 14:46:00;;;;;;;;;;;;;;;;;;5068521;28;19934;-69
2023/05/31 14:48:26;;;;;;;;;;;;;;;;;;5068866;28;19920;-68
2023/05/31 14:50:51;;;;;;;;;;;;;;;;;;5065885;28;20618;-70
2023/05/31 14:53:16;;;;;;;;;;;;;;;;;;5048338;28;19931;-69
2023/05/31 14:55:41;;;;;;;;;;;;;;;;;;5067001;28;19916;-70
2023/05/31 14:58:07;;;;;;;;;;;;;;;;;;5066775;28;20324;-69
2023/05/31 15:00:32;;;;;;;;;;;;;;;;;;5066804;28;19916;-70
2023/05/31 15:02:57;;;;;;;;;;;;;;;;;;5066210;28;19943;-70
2023/05/31 15:05:22;;;;;;;;;;;;;;;;;;5070695;28;20003;-69
2023/05/31 15:07:48;;;;;;;;;;;;;;;;;;5080201;28;19915;-70
2023/05/31 15:10:13;;;;;;;;;;;;;;;;;;5076519;28;19977;-70
2023/05/31 15:12:38;;;;;;;;;;;;;;;;;;5065950;28;19913;-70
2023/05/31 15:15:03;;;;;;;;;;;;;;;;;;5066062;28;20253;-69
2023/05/31 15:17:29;;;;;;;;;;;;;;;;;;5066693;28;19916;-69
2023/05/31 15:19:54;;;;;;;;;;;;;;;;;;5066672;28;19909;-70
2023/05/31 15:22:19;;;;;;;;;;;;;;;;;;5066258;28;20269;-70
2023/05/31 15:24:45;;;;;;;;;;;;;;;;;;5067685;28;19913;-70
2023/05/31 15:27:11;;;;;;;;;;;;;;;;;;5067817;28;19908;-69
2023/05/31 15:29:37;;;;;;;;;;;;;;;;;;5068257;28;19916;-69
2023/05/31 15:32:03;;;;;;;;;;;;;;;;;;5067596;28;20397;-69
2023/05/31 15:34:28;;;;;;;;;;;;;;;;;;5068158;28;19909;-70
2023/05/31 15:36:53;;;;;;;;;;;;;;;;;;5068448;28;20284;-71
2023/05/31 15:39:20;;;;;;;;;;;;;;;;;;5067320;28;19916;-69
2023/05/31 15:41:45;;;;;;;;;;;;;;;;;;5067431;28;20356;-69
2023/05/31 15:44:12;;;;;;;;;;;;;;;;;;5074184;28;19922;-70
2023/05/31 15:46:42;;;;;;;;;;;;;;;;;;5071760;28;20034;-69
2023/05/31 15:49:07;;;;;;;;;;;;;;;;;;5066638;28;19916;-70
2023/05/31 15:51:33;;;;;;;;;;;;;;;;;;5051457;28;19943;-69
2023/05/31 15:53:58;;;;;;;;;;;;;;;;;;5078658;28;19916;-70
2023/05/31 15:56:23;;;;;;;;;;;;;;;;;;5080313;28;19965;-68
2023/05/31 15:58:49;;;;;;;;;;;;;;;;;;5078408;28;20003;-70
2023/05/31 16:01:15;;;;;;;;;;;;;;;;;;5066090;28;19912;-70
2023/05/31 16:03:40;;;;;;;;;;;;;;;;;;5048069;28;19920;-69
2023/05/31 16:06:06;;;;;;;;;;;;;;;;;;5054529;28;20257;-70
2023/05/31 16:08:31;;;;;;;;;;;;;;;;;;5058347;28;20003;-70
2023/05/31 16:10:56;;;;;;;;;;;;;;;;;;5072454;28;19912;-69
2023/05/31 16:13:21;;;;;;;;;;;;;;;;;;5066406;28;19912;-69
2023/05/31 16:15:47;;;;;;;;;;;;;;;;;;5065190;28;21351;-69
2023/05/31 16:18:12;;;;;;;;;;;;;;;;;;5068251;28;19917;-69
2023/05/31 16:20:38;;;;;;;;;;;;;;;;;;5067447;28;19919;-68
2023/05/31 16:23:03;;;;;;;;;;;;;;;;;;5068703;28;19924;-69
2023/05/31 16:25:28;;;;;;;;;;;;;;;;;;5072020;28;19912;-69
2023/05/31 16:27:54;;;;;;;;;;;;;;;;;;5067381;28;20329;-69
2023/05/31 16:30:19;;;;;;;;;;;;;;;;;;5066995;28;20792;-70
2023/05/31 16:32:44;;;;;;;;;;;;;;;;;;5067451;28;20437;-72
2023/05/31 16:35:10;;;;;;;;;;;;;;;;;;5066049;28;19918;-73
2023/05/31 16:37:35;;;;;;;;;;;;;;;;;;5066912;28;19929;-72